Saga Sapphire — 9HOF8 — position and weather

sailwx.info

Track history (hours):
 
Tides and Currents Weather Stations Pressure Air Temp Water Temp Dewpoint Dewpoint Depression Visibility Wind Speed Wind Dir Waves Ship Positions

Saga Sapphire

Last reported at 2017-Apr-25 16:30 UTC. Time now 2017-Apr-25 16:34 UTC.
Position N 59°50' E 010°35'.

Length 200 m; draft 8.5 m.

Type: Ship. MMSI: 256208000.

Date/timePositionNaut miles runAvg speedWind from/ knotsBaromVisibWave heightAir tempDewpointWater temp
2017-Apr-25 16:30N 59°50' E 010°35'611.6
2017-Apr-25 16:00N 59°54' E 010°43'0 0.9
2017-Apr-25 15:29N 59°54' E 010°44'0 0.0
2017-Apr-25 14:59N 59°54' E 010°44'0 0.0
2017-Apr-25 14:29N 59°54' E 010°44'0 0.0
2017-Apr-25 13:29N 59°54' E 010°44'0 0.0
2017-Apr-25 12:59N 59°54' E 010°44'0 0.0
2017-Apr-25 12:29N 59°54' E 010°44'0 0.0
2017-Apr-25 11:59N 59°54' E 010°44'0 0.0
2017-Apr-25 11:29N 59°54' E 010°44'0 0.0
2017-Apr-25 10:59N 59°54' E 010°44'0 0.0
2017-Apr-25 10:29N 59°54' E 010°44'0 0.0
2017-Apr-25 09:59N 59°54' E 010°44'0 0.0
2017-Apr-25 09:29N 59°54' E 010°44'0 0.0
2017-Apr-25 08:59N 59°54' E 010°44'0 0.0
2017-Apr-25 08:29N 59°54' E 010°44'0 0.0
2017-Apr-25 07:56N 59°54' E 010°44'0 0.0
2017-Apr-25 07:29N 59°54' E 010°44'0 0.0
2017-Apr-25 06:59N 59°54' E 010°44'0 0.0
2017-Apr-25 06:29N 59°54' E 010°44'0 0.0
2017-Apr-25 05:59N 59°54' E 010°44'0 0.0
2017-Apr-25 05:29N 59°54' E 010°44'0 0.0
2017-Apr-25 04:56N 59°54' E 010°44'0 0.0
2017-Apr-25 04:29N 59°54' E 010°44'0 0.0
2017-Apr-25 03:59N 59°54' E 010°44'0 0.0
2017-Apr-25 03:29N 59°54' E 010°44'0 0.0
2017-Apr-25 02:59N 59°54' E 010°44'0 0.0
2017-Apr-25 02:29N 59°54' E 010°44'0 0.0
2017-Apr-25 01:59N 59°54' E 010°44'0 0.0
2017-Apr-25 01:29N 59°54' E 010°44'0 0.0
2017-Apr-25 00:59N 59°54' E 010°44'0 0.0
2017-Apr-25 00:29N 59°54' E 010°44'0 0.0
2017-Apr-24 23:59N 59°54' E 010°44'0 0.0
2017-Apr-24 23:29N 59°54' E 010°44'0 0.0
2017-Apr-24 22:59N 59°54' E 010°44'0 0.0
2017-Apr-24 22:29N 59°54' E 010°44'0 0.0
2017-Apr-24 21:59N 59°54' E 010°44'0 0.0
2017-Apr-24 21:29N 59°54' E 010°44'0 0.0
2017-Apr-24 20:59N 59°54' E 010°44'0 0.0
2017-Apr-24 20:29N 59°54' E 010°44'0 0.0
2017-Apr-24 19:59N 59°54' E 010°44'0 0.0
2017-Apr-24 19:29N 59°54' E 010°44'0 0.0
2017-Apr-24 18:59N 59°54' E 010°44'0 0.0
2017-Apr-24 18:29N 59°54' E 010°44'0 0.0
2017-Apr-24 17:59N 59°54' E 010°44'0 0.0
2017-Apr-24 17:29N 59°54' E 010°44'0 0.0
2017-Apr-24 16:59N 59°54' E 010°44'0 0.0
2017-Apr-24 16:29N 59°54' E 010°44'0 0.0
2017-Apr-24 15:59N 59°54' E 010°44'1 1.3
2017-Apr-24 15:30N 59°54' E 010°43'5 9.5
2017-Apr-24 15:00N 59°51' E 010°36'612.9
2017-Apr-24 14:30N 59°45' E 010°35'1312.7
2017-Apr-24 13:31N 59°32' E 010°37'714.9
2017-Apr-24 13:00N 59°25' E 010°34'815.2
2017-Apr-24 12:31N 59°17' E 010°37'815.1
2017-Apr-24 12:01N 59°10' E 010°39'511.0
2017-Apr-24 11:31N 59°04' E 010°36'510.6
2017-Apr-24 11:00N 58°59' E 010°37'5 9.4
2017-Apr-24 10:31N 58°55' E 010°38'5 9.8
2017-Apr-24 10:01N 58°50' E 010°37'5 9.6
2017-Apr-24 09:31N 58°45' E 010°39'5 9.7
2017-Apr-24 09:01N 58°40' E 010°42'510.0
2017-Apr-24 08:31N 58°35' E 010°43'5 9.8
2017-Apr-24 08:01N 58°31' E 010°45'5 9.9
2017-Apr-24 07:31N 58°26' E 010°50'5 9.9
2017-Apr-24 07:00N 58°22' E 010°54'5 9.9
2017-Apr-24 06:30N 58°18' E 010°59'610.5
2017-Apr-24 05:59N 58°12' E 011°02'610.3
2017-Apr-24 05:25N 58°07' E 011°06'4 9.4
2017-Apr-24 05:00N 58°03' E 011°08'5 9.5
2017-Apr-24 04:30N 57°59' E 011°11'5 9.6
2017-Apr-24 04:00N 57°54' E 011°13'5 9.5
2017-Apr-24 03:31N 57°50' E 011°16'5 9.2
2017-Apr-24 03:00N 57°45' E 011°19'5 9.5
2017-Apr-24 02:30N 57°41' E 011°21'510.5
2017-Apr-24 02:00N 57°35' E 011°23'510.5
2017-Apr-24 01:30N 57°30' E 011°26'510.7
2017-Apr-24 01:00N 57°25' E 011°29'510.7
2017-Apr-24 00:31N 57°20' E 011°32'510.8
2017-Apr-24 00:00N 57°15' E 011°34'611.1
2017-Apr-23 23:30N 57°10' E 011°37'510.3
2017-Apr-23 22:59N 57°04' E 011°40'39 9.5
2017-Apr-23 18:50N 56°55' E 010°30'410.4
2017-Apr-23 18:30N 56°57' E 010°25'5 9.5
2017-Apr-23 18:00N 56°59' E 010°18'510.5
2017-Apr-23 17:30N 57°01' E 010°09'510.7
2017-Apr-23 17:00N 57°05' E 010°02'4 7.1
2017-Apr-23 16:30N 57°03' E 009°56'1 1.3
2017-Apr-23 16:00N 57°03' E 009°57'0 0.0
2017-Apr-23 15:28N 57°03' E 009°57'0 0.0
2017-Apr-23 14:58N 57°03' E 009°57'0 0.0
2017-Apr-23 13:58N 57°03' E 009°57'0 0.0
2017-Apr-23 13:28N 57°03' E 009°57'0 0.0
2017-Apr-23 12:58N 57°03' E 009°57'0 0.0
2017-Apr-23 12:28N 57°03' E 009°57'0 0.0
2017-Apr-23 11:58N 57°03' E 009°57'0 0.0
2017-Apr-23 11:28N 57°03' E 009°57'0 0.0
2017-Apr-23 10:58N 57°03' E 009°57'0 0.0
2017-Apr-23 10:25N 57°03' E 009°57'0 0.0
2017-Apr-23 09:58N 57°03' E 009°57'0 0.0
2017-Apr-23 09:28N 57°03' E 009°57'0 0.0
2017-Apr-23 08:58N 57°03' E 009°57'0 0.0
2017-Apr-23 08:28N 57°03' E 009°57'0 0.0
2017-Apr-23 07:58N 57°03' E 009°57'0 0.0
2017-Apr-23 07:28N 57°03' E 009°57'0 0.0
2017-Apr-23 06:58N 57°03' E 009°57'0 0.0
2017-Apr-23 06:30N 57°03' E 009°57'3 5.3
2017-Apr-23 06:00N 57°05' E 010°00'5 9.3
2017-Apr-23 05:30N 57°02' E 010°07'510.3
2017-Apr-23 05:00N 56°59' E 010°15'4 8.8
2017-Apr-23 04:30N 56°58' E 010°22'3210.0
2017-Apr-23 01:18N 56°51' E 011°19'311.1
2017-Apr-23 01:00N 56°51' E 011°25'611.2
2017-Apr-23 00:28N 56°52' E 011°36'610.6
2017-Apr-22 23:57N 56°53' E 011°46'5410.3
2017-Apr-22 18:42N 56°05' E 011°01'311.1
2017-Apr-22 18:28N 56°04' E 010°57'611.5
2017-Apr-22 17:59N 56°03' E 010°47'611.5
2017-Apr-22 17:30N 56°04' E 010°37'611.7
2017-Apr-22 17:00N 56°06' E 010°28'612.6
2017-Apr-22 16:30N 56°09' E 010°18'2 4.8
2017-Apr-22 16:00N 56°09' E 010°13'0 0.0
2017-Apr-22 15:30N 56°09' E 010°13'0 0.0
2017-Apr-22 15:00N 56°09' E 010°13'0 0.0
2017-Apr-22 14:30N 56°09' E 010°13'0 0.0
2017-Apr-22 13:30N 56°09' E 010°13'0 0.0
2017-Apr-22 12:54N 56°09' E 010°13'0 0.0
2017-Apr-22 12:30N 56°09' E 010°13'0 0.0
2017-Apr-22 12:00N 56°09' E 010°13'0 0.0
2017-Apr-22 11:30N 56°09' E 010°13'0 0.0
2017-Apr-22 10:57N 56°09' E 010°13'0 0.0
2017-Apr-22 10:30N 56°09' E 010°13'0 0.0
2017-Apr-22 10:00N 56°09' E 010°13'0 0.0
2017-Apr-22 09:30N 56°09' E 010°13'0 0.0
2017-Apr-22 09:00N 56°09' E 010°13'0 0.0
2017-Apr-22 08:30N 56°09' E 010°13'0 0.0
2017-Apr-22 07:57N 56°09' E 010°13'0 0.0
2017-Apr-22 07:30N 56°09' E 010°13'0 0.0
2017-Apr-22 07:00N 56°09' E 010°13'0 0.0
2017-Apr-22 06:30N 56°09' E 010°13'0 0.0
2017-Apr-22 06:00N 56°09' E 010°13'0 0.8
2017-Apr-22 05:31N 56°10' E 010°14'2 4.5
2017-Apr-22 05:00N 56°09' E 010°17'4 7.4
2017-Apr-22 04:31N 56°07' E 010°23'510.1
2017-Apr-22 04:00N 56°05' E 010°32'510.2
2017-Apr-22 03:30N 56°03' E 010°40'6 9.6
2017-Apr-22 02:54N 56°03' E 010°50'510.7
2017-Apr-22 02:24N 56°05' E 010°59'4410.0
2017-Apr-21 21:58N 56°14' E 012°17'510.6
2017-Apr-21 21:30N 56°11' E 012°24'510.7
2017-Apr-21 21:00N 56°08' E 012°31'510.1
2017-Apr-21 20:30N 56°04' E 012°38'5 9.6
2017-Apr-21 20:00N 55°60' E 012°41'510.0
2017-Apr-21 19:30N 55°55' E 012°38'611.4
2017-Apr-21 19:00N 55°50' E 012°43'510.0
2017-Apr-21 18:30N 55°45' E 012°42'4 8.7
2017-Apr-21 18:00N 55°42' E 012°36'0 0.7
2017-Apr-21 17:28N 55°42' E 012°36'0 0.0
2017-Apr-21 16:58N 55°42' E 012°36'0 0.0
2017-Apr-21 16:28N 55°42' E 012°36'0 0.0
2017-Apr-21 15:58N 55°42' E 012°36'0 0.0
2017-Apr-21 15:28N 55°42' E 012°36'0 0.0
2017-Apr-21 14:58N 55°42' E 012°36'0 0.0
2017-Apr-21 14:28N 55°42' E 012°36'0 0.0
2017-Apr-21 13:28N 55°42' E 012°36'0 0.0
2017-Apr-21 12:58N 55°42' E 012°36'0 0.0
2017-Apr-21 12:28N 55°42' E 012°36'0 0.0
2017-Apr-21 11:58N 55°42' E 012°36'0 0.0
2017-Apr-21 11:28N 55°42' E 012°36'0 0.0
2017-Apr-21 10:58N 55°42' E 012°36'0 0.0
2017-Apr-21 10:28N 55°42' E 012°36'0 0.0
2017-Apr-21 09:58N 55°42' E 012°36'0 0.0
2017-Apr-21 09:28N 55°42' E 012°36'0 0.0
2017-Apr-21 08:58N 55°42' E 012°36'0 0.0
2017-Apr-21 08:28N 55°42' E 012°36'0 0.0
2017-Apr-21 07:55N 55°42' E 012°36'0 0.0
2017-Apr-21 07:28N 55°42' E 012°36'0 0.0
2017-Apr-21 06:58N 55°42' E 012°36'0 0.0
2017-Apr-21 06:28N 55°42' E 012°36'0 0.0
2017-Apr-21 05:58N 55°42' E 012°36'0 0.0
2017-Apr-21 05:30N 55°42' E 012°36'1 1.3
2017-Apr-21 05:00N 55°42' E 012°37'4 8.7
2017-Apr-21 04:30N 55°46' E 012°42'4 8.8
2017-Apr-21 04:00N 55°50' E 012°43'612.3
2017-Apr-21 03:30N 55°56' E 012°38'611.8
2017-Apr-21 03:00N 56°02' E 012°38'612.5
2017-Apr-21 02:30N 56°07' E 012°31'612.9
2017-Apr-21 02:00N 56°10' E 012°22'70 8.7
2017-Apr-20 17:58N 55°15' E 011°06'612.6
2017-Apr-20 17:30N 55°09' E 011°04'713.4
2017-Apr-20 17:00N 55°02' E 011°03'713.3
2017-Apr-20 16:31N 54°56' E 010°57'713.8
2017-Apr-20 16:01N 54°50' E 010°53'713.8
2017-Apr-20 15:31N 54°43' E 010°53'612.3
2017-Apr-20 15:01N 54°38' E 010°47'1313.1
2017-Apr-20 13:59N 54°31' E 010°27'43 4.9
2017-Apr-20 05:17N 54°10' E 009°23'1 4.6
2017-Apr-20 05:00N 54°09' E 009°22'2 3.5
2017-Apr-20 04:30N 54°08' E 009°20'3 6.1
2017-Apr-20 04:00N 54°04' E 009°19'3 6.4
2017-Apr-20 03:30N 54°01' E 009°18'3 6.2
2017-Apr-20 03:00N 53°58' E 009°16'3 6.5
2017-Apr-20 02:31N 53°56' E 009°13'3 6.2
2017-Apr-20 02:01N 53°54' E 009°09'0 0.4
2017-Apr-20 01:31N 53°54' E 009°09'1 2.8
2017-Apr-20 01:01N 53°53' E 009°07'2 4.9
2017-Apr-20 00:31N 53°52' E 009°03'5 9.7
2017-Apr-20 00:00N 53°51' E 008°55'510.2
2017-Apr-19 23:31N 53°51' E 008°46'4 8.5
2017-Apr-19 23:01N 53°54' E 008°42'510.1
2017-Apr-19 22:30N 53°58' E 008°36'713.6
2017-Apr-19 22:00N 53°59' E 008°24'713.3
2017-Apr-19 21:30N 53°60' E 008°13'510.2
2017-Apr-19 21:00N 53°59' E 008°05'713.9
2017-Apr-19 20:30N 53°58' E 007°53'12611.2
2017-Apr-19 09:19N 53°14' E 004°35'411.7
2017-Apr-19 09:00N 53°11' E 004°32'611.8
2017-Apr-19 08:31N 53°06' E 004°27'611.9
2017-Apr-19 07:58N 53°00' E 004°21'511.9
2017-Apr-19 07:30N 52°55' E 004°18'611.7
2017-Apr-19 07:00N 52°50' E 004°12'611.4
2017-Apr-19 06:30N 52°45' E 004°07'611.2
2017-Apr-19 06:00N 52°41' E 004°02'510.8
2017-Apr-19 05:30N 52°37' E 003°56'82 9.6
2017-Apr-18 21:00N 51°38' E 002°24'510.2
2017-Apr-18 20:30N 51°34' E 002°20'510.3
2017-Apr-18 20:00N 51°30' E 002°14'510.6
2017-Apr-18 19:30N 51°26' E 002°08'510.7
2017-Apr-18 19:00N 51°22' E 002°02'510.9
2017-Apr-18 18:30N 51°18' E 001°56'611.0
2017-Apr-18 18:00N 51°14' E 001°50'611.1
2017-Apr-18 17:30N 51°10' E 001°45'611.2
2017-Apr-18 17:00N 51°05' E 001°39'611.2
2017-Apr-18 16:30N 51°02' E 001°32'5 9.8
2017-Apr-18 16:00N 51°04' E 001°25'5 9.0
2017-Apr-18 15:30N 51°07' E 001°19'0 0.2
2017-Apr-18 14:54N 51°07' E 001°19'0 0.0
2017-Apr-18 14:21N 51°07' E 001°19'0 0.0
2017-Apr-18 12:59N 51°07' E 001°19'0 0.0
2017-Apr-18 12:26N 51°07' E 001°19'0 0.0
2017-Apr-18 11:59N 51°07' E 001°19'0 0.0
2017-Apr-18 11:24N 51°07' E 001°19'0 0.0
2017-Apr-18 10:55N 51°07' E 001°19'0 0.0
2017-Apr-18 10:23N 51°07' E 001°19'0 0.0
2017-Apr-18 09:59N 51°07' E 001°19'0 0.0
2017-Apr-18 09:29N 51°07' E 001°19'0 0.0
2017-Apr-18 08:56N 51°07' E 001°19'0 0.0
2017-Apr-18 08:29N 51°07' E 001°19'0 0.0
2017-Apr-18 07:47N 51°07' E 001°19'0 0.0
2017-Apr-18 07:23N 51°07' E 001°19'0 0.0
2017-Apr-18 07:00N 51°07' E 001°19'0 0.0
2017-Apr-18 06:24N 51°07' E 001°19'0 1.2
2017-Apr-18 06:00N 51°07' E 001°20'4 8.5
2017-Apr-18 05:30N 51°07' E 001°26'510.2
2017-Apr-18 05:01N 51°04' E 001°33'612.3
2017-Apr-18 04:31N 50°59' E 001°29'713.2
2017-Apr-18 03:59N 50°52' E 001°25'5911.1
2017-Apr-17 22:40N 50°10' E 000°19'211.3
2017-Apr-17 22:31N 50°09' E 000°17'611.1
2017-Apr-17 22:00N 50°05' E 000°11'510.6
2017-Apr-17 21:30N 50°01' E 000°07'5 9.8
2017-Apr-17 21:00N 49°57' E 000°02'4 9.0
2017-Apr-17 20:30N 49°53' W 000°02'4 8.8
2017-Apr-17 20:01N 49°50' W 000°06'4 8.7
2017-Apr-17 19:31N 49°46' W 000°09'5 9.3
2017-Apr-17 19:01N 49°41' W 000°07'5 9.6
2017-Apr-17 18:31N 49°37' W 000°04'5 9.4
2017-Apr-17 18:01N 49°33' W 000°01'5 9.8
2017-Apr-17 17:31N 49°29' E 000°04'1 2.9
2017-Apr-17 17:00N 49°29' E 000°07'0 0.0
2017-Apr-17 16:30N 49°29' E 000°07'0 0.0
2017-Apr-17 16:00N 49°29' E 000°07'0 0.0
2017-Apr-17 15:30N 49°29' E 000°07'0 0.0
2017-Apr-17 14:59N 49°29' E 000°07'0 0.0
2017-Apr-17 14:29N 49°29' E 000°07'0 0.0
2017-Apr-17 13:29N 49°29' E 000°07'0 0.0
2017-Apr-17 12:59N 49°29' E 000°07'0 0.0
2017-Apr-17 12:29N 49°29' E 000°07'0 0.0
2017-Apr-17 11:59N 49°29' E 000°07'0 0.0
2017-Apr-17 11:29N 49°29' E 000°07'0 0.0
2017-Apr-17 10:59N 49°29' E 000°07'0 0.0
2017-Apr-17 10:29N 49°29' E 000°07'0 0.0
2017-Apr-17 09:59N 49°29' E 000°07'0 0.0
2017-Apr-17 09:29N 49°29' E 000°07'0 0.0
2017-Apr-17 08:59N 49°29' E 000°07'0 0.0
2017-Apr-17 08:29N 49°29' E 000°07'0 0.0
2017-Apr-17 07:59N 49°29' E 000°07'0 0.0
2017-Apr-17 07:29N 49°29' E 000°07'0 0.0
2017-Apr-17 06:59N 49°29' E 000°07'0 0.0
2017-Apr-17 06:28N 49°29' E 000°07'0 0.6
2017-Apr-17 06:00N 49°29' E 000°06'4 8.5
2017-Apr-17 05:30N 49°30' W 000°00'5 9.1
2017-Apr-17 05:00N 49°31' W 000°07'4 7.5
2017-Apr-17 04:30N 49°33' W 000°12'510.0
2017-Apr-17 04:00N 49°35' W 000°19'4 8.5
2017-Apr-17 03:30N 49°37' W 000°24'4 8.0
2017-Apr-17 03:00N 49°39' W 000°30'4 8.3
2017-Apr-17 02:30N 49°42' W 000°35'4 8.7
2017-Apr-17 02:00N 49°45' W 000°39'4 9.0
2017-Apr-17 01:30N 49°49' W 000°43'5 9.3
2017-Apr-17 01:00N 49°53' W 000°46'5 9.6
2017-Apr-17 00:30N 49°57' W 000°50'5 9.8
2017-Apr-17 00:00N 49°58' W 000°58'611.4
2017-Apr-16 23:30N 49°57' W 001°06'63 3.5
2017-Apr-16 05:27N 49°24' W 002°30'39 8.8
2017-Apr-16 01:03N 49°46' W 003°19'111.0
2017-Apr-16 00:58N 49°47' W 003°19'4 9.2
2017-Apr-16 00:30N 49°51' W 003°18'610.8
2017-Apr-15 23:58N 49°54' W 003°09'510.2
2017-Apr-15 23:30N 49°56' W 003°03'5 9.9
2017-Apr-15 23:00N 49°59' W 002°56'5 9.3
2017-Apr-15 22:30N 49°60' W 002°50'  
Track history (hours):
 
Tides and Currents Weather Stations Pressure Air Temp Water Temp Dewpoint Dewpoint Depression Visibility Wind Speed Wind Dir Waves Ship Positions

Saga Sapphire

Last reported at 2017-Apr-25 16:30 UTC. Time now 2017-Apr-25 16:34 UTC.
Position N 59°50' E 010°35'.

Length 200 m; draft 8.5 m.

Type: Ship. MMSI: 256208000.

Date/timePositionNaut miles runAvg speedWind from/ knotsBaromVisibWave heightAir tempDewpointWater temp
2017-Apr-25 16:30N 59°50' E 010°35'611.6
2017-Apr-25 16:00N 59°54' E 010°43'0 0.9
2017-Apr-25 15:29N 59°54' E 010°44'0 0.0
2017-Apr-25 14:59N 59°54' E 010°44'0 0.0
2017-Apr-25 14:29N 59°54' E 010°44'0 0.0
2017-Apr-25 13:29N 59°54' E 010°44'0 0.0
2017-Apr-25 12:59N 59°54' E 010°44'0 0.0
2017-Apr-25 12:29N 59°54' E 010°44'0 0.0
2017-Apr-25 11:59N 59°54' E 010°44'0 0.0
2017-Apr-25 11:29N 59°54' E 010°44'0 0.0
2017-Apr-25 10:59N 59°54' E 010°44'0 0.0
2017-Apr-25 10:29N 59°54' E 010°44'0 0.0
2017-Apr-25 09:59N 59°54' E 010°44'0 0.0
2017-Apr-25 09:29N 59°54' E 010°44'0 0.0
2017-Apr-25 08:59N 59°54' E 010°44'0 0.0
2017-Apr-25 08:29N 59°54' E 010°44'0 0.0
2017-Apr-25 07:56N 59°54' E 010°44'0 0.0
2017-Apr-25 07:29N 59°54' E 010°44'0 0.0
2017-Apr-25 06:59N 59°54' E 010°44'0 0.0
2017-Apr-25 06:29N 59°54' E 010°44'0 0.0
2017-Apr-25 05:59N 59°54' E 010°44'0 0.0
2017-Apr-25 05:29N 59°54' E 010°44'0 0.0
2017-Apr-25 04:56N 59°54' E 010°44'0 0.0
2017-Apr-25 04:29N 59°54' E 010°44'0 0.0
2017-Apr-25 03:59N 59°54' E 010°44'0 0.0
2017-Apr-25 03:29N 59°54' E 010°44'0 0.0
2017-Apr-25 02:59N 59°54' E 010°44'0 0.0
2017-Apr-25 02:29N 59°54' E 010°44'0 0.0
2017-Apr-25 01:59N 59°54' E 010°44'0 0.0
2017-Apr-25 01:29N 59°54' E 010°44'0 0.0
2017-Apr-25 00:59N 59°54' E 010°44'0 0.0
2017-Apr-25 00:29N 59°54' E 010°44'0 0.0
2017-Apr-24 23:59N 59°54' E 010°44'0 0.0
2017-Apr-24 23:29N 59°54' E 010°44'0 0.0
2017-Apr-24 22:59N 59°54' E 010°44'0 0.0
2017-Apr-24 22:29N 59°54' E 010°44'0 0.0
2017-Apr-24 21:59N 59°54' E 010°44'0 0.0
2017-Apr-24 21:29N 59°54' E 010°44'0 0.0
2017-Apr-24 20:59N 59°54' E 010°44'0 0.0
2017-Apr-24 20:29N 59°54' E 010°44'0 0.0
2017-Apr-24 19:59N 59°54' E 010°44'0 0.0
2017-Apr-24 19:29N 59°54' E 010°44'0 0.0
2017-Apr-24 18:59N 59°54' E 010°44'0 0.0
2017-Apr-24 18:29N 59°54' E 010°44'0 0.0
2017-Apr-24 17:59N 59°54' E 010°44'0 0.0
2017-Apr-24 17:29N 59°54' E 010°44'0 0.0
2017-Apr-24 16:59N 59°54' E 010°44'0 0.0
2017-Apr-24 16:29N 59°54' E 010°44'0 0.0
2017-Apr-24 15:59N 59°54' E 010°44'1 1.3
2017-Apr-24 15:30N 59°54' E 010°43'5 9.5
2017-Apr-24 15:00N 59°51' E 010°36'612.9
2017-Apr-24 14:30N 59°45' E 010°35'1312.7
2017-Apr-24 13:31N 59°32' E 010°37'714.9
2017-Apr-24 13:00N 59°25' E 010°34'815.2
2017-Apr-24 12:31N 59°17' E 010°37'815.1
2017-Apr-24 12:01N 59°10' E 010°39'511.0
2017-Apr-24 11:31N 59°04' E 010°36'510.6
2017-Apr-24 11:00N 58°59' E 010°37'5 9.4
2017-Apr-24 10:31N 58°55' E 010°38'5 9.8
2017-Apr-24 10:01N 58°50' E 010°37'5 9.6
2017-Apr-24 09:31N 58°45' E 010°39'5 9.7
2017-Apr-24 09:01N 58°40' E 010°42'510.0
2017-Apr-24 08:31N 58°35' E 010°43'5 9.8
2017-Apr-24 08:01N 58°31' E 010°45'5 9.9
2017-Apr-24 07:31N 58°26' E 010°50'5 9.9
2017-Apr-24 07:00N 58°22' E 010°54'5 9.9
2017-Apr-24 06:30N 58°18' E 010°59'610.5
2017-Apr-24 05:59N 58°12' E 011°02'610.3
2017-Apr-24 05:25N 58°07' E 011°06'4 9.4
2017-Apr-24 05:00N 58°03' E 011°08'5 9.5
2017-Apr-24 04:30N 57°59' E 011°11'5 9.6
2017-Apr-24 04:00N 57°54' E 011°13'5 9.5
2017-Apr-24 03:31N 57°50' E 011°16'5 9.2
2017-Apr-24 03:00N 57°45' E 011°19'5 9.5
2017-Apr-24 02:30N 57°41' E 011°21'510.5
2017-Apr-24 02:00N 57°35' E 011°23'510.5
2017-Apr-24 01:30N 57°30' E 011°26'510.7
2017-Apr-24 01:00N 57°25' E 011°29'510.7
2017-Apr-24 00:31N 57°20' E 011°32'510.8
2017-Apr-24 00:00N 57°15' E 011°34'611.1
2017-Apr-23 23:30N 57°10' E 011°37'510.3
2017-Apr-23 22:59N 57°04' E 011°40'39 9.5
2017-Apr-23 18:50N 56°55' E 010°30'410.4
2017-Apr-23 18:30N 56°57' E 010°25'5 9.5
2017-Apr-23 18:00N 56°59' E 010°18'510.5
2017-Apr-23 17:30N 57°01' E 010°09'510.7
2017-Apr-23 17:00N 57°05' E 010°02'4 7.1
2017-Apr-23 16:30N 57°03' E 009°56'1 1.3
2017-Apr-23 16:00N 57°03' E 009°57'0 0.0
2017-Apr-23 15:28N 57°03' E 009°57'0 0.0
2017-Apr-23 14:58N 57°03' E 009°57'0 0.0
2017-Apr-23 13:58N 57°03' E 009°57'0 0.0
2017-Apr-23 13:28N 57°03' E 009°57'0 0.0
2017-Apr-23 12:58N 57°03' E 009°57'0 0.0
2017-Apr-23 12:28N 57°03' E 009°57'0 0.0
2017-Apr-23 11:58N 57°03' E 009°57'0 0.0
2017-Apr-23 11:28N 57°03' E 009°57'0 0.0
2017-Apr-23 10:58N 57°03' E 009°57'0 0.0
2017-Apr-23 10:25N 57°03' E 009°57'0 0.0
2017-Apr-23 09:58N 57°03' E 009°57'0 0.0
2017-Apr-23 09:28N 57°03' E 009°57'0 0.0
2017-Apr-23 08:58N 57°03' E 009°57'0 0.0
2017-Apr-23 08:28N 57°03' E 009°57'0 0.0
2017-Apr-23 07:58N 57°03' E 009°57'0 0.0
2017-Apr-23 07:28N 57°03' E 009°57'0 0.0
2017-Apr-23 06:58N 57°03' E 009°57'0 0.0
2017-Apr-23 06:30N 57°03' E 009°57'3 5.3
2017-Apr-23 06:00N 57°05' E 010°00'5 9.3
2017-Apr-23 05:30N 57°02' E 010°07'510.3
2017-Apr-23 05:00N 56°59' E 010°15'4 8.8
2017-Apr-23 04:30N 56°58' E 010°22'3210.0
2017-Apr-23 01:18N 56°51' E 011°19'311.1
2017-Apr-23 01:00N 56°51' E 011°25'611.2
2017-Apr-23 00:28N 56°52' E 011°36'610.6
2017-Apr-22 23:57N 56°53' E 011°46'5410.3
2017-Apr-22 18:42N 56°05' E 011°01'311.1
2017-Apr-22 18:28N 56°04' E 010°57'611.5
2017-Apr-22 17:59N 56°03' E 010°47'611.5
2017-Apr-22 17:30N 56°04' E 010°37'611.7
2017-Apr-22 17:00N 56°06' E 010°28'612.6
2017-Apr-22 16:30N 56°09' E 010°18'2 4.8
2017-Apr-22 16:00N 56°09' E 010°13'0 0.0
2017-Apr-22 15:30N 56°09' E 010°13'0 0.0
2017-Apr-22 15:00N 56°09' E 010°13'0 0.0
2017-Apr-22 14:30N 56°09' E 010°13'0 0.0
2017-Apr-22 13:30N 56°09' E 010°13'0 0.0
2017-Apr-22 12:54N 56°09' E 010°13'0 0.0
2017-Apr-22 12:30N 56°09' E 010°13'0 0.0
2017-Apr-22 12:00N 56°09' E 010°13'0 0.0
2017-Apr-22 11:30N 56°09' E 010°13'0 0.0
2017-Apr-22 10:57N 56°09' E 010°13'0 0.0
2017-Apr-22 10:30N 56°09' E 010°13'0 0.0
2017-Apr-22 10:00N 56°09' E 010°13'0 0.0
2017-Apr-22 09:30N 56°09' E 010°13'0 0.0
2017-Apr-22 09:00N 56°09' E 010°13'0 0.0
2017-Apr-22 08:30N 56°09' E 010°13'0 0.0
2017-Apr-22 07:57N 56°09' E 010°13'0 0.0
2017-Apr-22 07:30N 56°09' E 010°13'0 0.0
2017-Apr-22 07:00N 56°09' E 010°13'0 0.0
2017-Apr-22 06:30N 56°09' E 010°13'0 0.0
2017-Apr-22 06:00N 56°09' E 010°13'0 0.8
2017-Apr-22 05:31N 56°10' E 010°14'2 4.5
2017-Apr-22 05:00N 56°09' E 010°17'4 7.4
2017-Apr-22 04:31N 56°07' E 010°23'510.1
2017-Apr-22 04:00N 56°05' E 010°32'510.2
2017-Apr-22 03:30N 56°03' E 010°40'6 9.6
2017-Apr-22 02:54N 56°03' E 010°50'510.7
2017-Apr-22 02:24N 56°05' E 010°59'4410.0
2017-Apr-21 21:58N 56°14' E 012°17'510.6
2017-Apr-21 21:30N 56°11' E 012°24'510.7
2017-Apr-21 21:00N 56°08' E 012°31'510.1
2017-Apr-21 20:30N 56°04' E 012°38'5 9.6
2017-Apr-21 20:00N 55°60' E 012°41'510.0
2017-Apr-21 19:30N 55°55' E 012°38'611.4
2017-Apr-21 19:00N 55°50' E 012°43'510.0
2017-Apr-21 18:30N 55°45' E 012°42'4 8.7
2017-Apr-21 18:00N 55°42' E 012°36'0 0.7
2017-Apr-21 17:28N 55°42' E 012°36'0 0.0
2017-Apr-21 16:58N 55°42' E 012°36'0 0.0
2017-Apr-21 16:28N 55°42' E 012°36'0 0.0
2017-Apr-21 15:58N 55°42' E 012°36'0 0.0
2017-Apr-21 15:28N 55°42' E 012°36'0 0.0
2017-Apr-21 14:58N 55°42' E 012°36'0 0.0
2017-Apr-21 14:28N 55°42' E 012°36'0 0.0
2017-Apr-21 13:28N 55°42' E 012°36'0 0.0
2017-Apr-21 12:58N 55°42' E 012°36'0 0.0
2017-Apr-21 12:28N 55°42' E 012°36'0 0.0
2017-Apr-21 11:58N 55°42' E 012°36'0 0.0
2017-Apr-21 11:28N 55°42' E 012°36'0 0.0
2017-Apr-21 10:58N 55°42' E 012°36'0 0.0
2017-Apr-21 10:28N 55°42' E 012°36'0 0.0
2017-Apr-21 09:58N 55°42' E 012°36'0 0.0
2017-Apr-21 09:28N 55°42' E 012°36'0 0.0
2017-Apr-21 08:58N 55°42' E 012°36'0 0.0
2017-Apr-21 08:28N 55°42' E 012°36'0 0.0
2017-Apr-21 07:55N 55°42' E 012°36'0 0.0
2017-Apr-21 07:28N 55°42' E 012°36'0 0.0
2017-Apr-21 06:58N 55°42' E 012°36'0 0.0
2017-Apr-21 06:28N 55°42' E 012°36'0 0.0
2017-Apr-21 05:58N 55°42' E 012°36'0 0.0
2017-Apr-21 05:30N 55°42' E 012°36'1 1.3
2017-Apr-21 05:00N 55°42' E 012°37'4 8.7
2017-Apr-21 04:30N 55°46' E 012°42'4 8.8
2017-Apr-21 04:00N 55°50' E 012°43'612.3
2017-Apr-21 03:30N 55°56' E 012°38'611.8
2017-Apr-21 03:00N 56°02' E 012°38'612.5
2017-Apr-21 02:30N 56°07' E 012°31'612.9
2017-Apr-21 02:00N 56°10' E 012°22'70 8.7
2017-Apr-20 17:58N 55°15' E 011°06'612.6
2017-Apr-20 17:30N 55°09' E 011°04'713.4
2017-Apr-20 17:00N 55°02' E 011°03'713.3
2017-Apr-20 16:31N 54°56' E 010°57'713.8
2017-Apr-20 16:01N 54°50' E 010°53'713.8
2017-Apr-20 15:31N 54°43' E 010°53'612.3
2017-Apr-20 15:01N 54°38' E 010°47'1313.1
2017-Apr-20 13:59N 54°31' E 010°27'43 4.9
2017-Apr-20 05:17N 54°10' E 009°23'1 4.6
2017-Apr-20 05:00N 54°09' E 009°22'2 3.5
2017-Apr-20 04:30N 54°08' E 009°20'3 6.1
2017-Apr-20 04:00N 54°04' E 009°19'3 6.4
2017-Apr-20 03:30N 54°01' E 009°18'3 6.2
2017-Apr-20 03:00N 53°58' E 009°16'3 6.5
2017-Apr-20 02:31N 53°56' E 009°13'3 6.2
2017-Apr-20 02:01N 53°54' E 009°09'0 0.4
2017-Apr-20 01:31N 53°54' E 009°09'1 2.8
2017-Apr-20 01:01N 53°53' E 009°07'2 4.9
2017-Apr-20 00:31N 53°52' E 009°03'5 9.7
2017-Apr-20 00:00N 53°51' E 008°55'510.2
2017-Apr-19 23:31N 53°51' E 008°46'4 8.5
2017-Apr-19 23:01N 53°54' E 008°42'510.1
2017-Apr-19 22:30N 53°58' E 008°36'713.6
2017-Apr-19 22:00N 53°59' E 008°24'713.3
2017-Apr-19 21:30N 53°60' E 008°13'510.2
2017-Apr-19 21:00N 53°59' E 008°05'713.9
2017-Apr-19 20:30N 53°58' E 007°53'12611.2
2017-Apr-19 09:19N 53°14' E 004°35'411.7
2017-Apr-19 09:00N 53°11' E 004°32'611.8
2017-Apr-19 08:31N 53°06' E 004°27'611.9
2017-Apr-19 07:58N 53°00' E 004°21'511.9
2017-Apr-19 07:30N 52°55' E 004°18'611.7
2017-Apr-19 07:00N 52°50' E 004°12'611.4
2017-Apr-19 06:30N 52°45' E 004°07'611.2
2017-Apr-19 06:00N 52°41' E 004°02'510.8
2017-Apr-19 05:30N 52°37' E 003°56'82 9.6
2017-Apr-18 21:00N 51°38' E 002°24'510.2
2017-Apr-18 20:30N 51°34' E 002°20'510.3
2017-Apr-18 20:00N 51°30' E 002°14'510.6
2017-Apr-18 19:30N 51°26' E 002°08'510.7
2017-Apr-18 19:00N 51°22' E 002°02'510.9
2017-Apr-18 18:30N 51°18' E 001°56'611.0
2017-Apr-18 18:00N 51°14' E 001°50'611.1
2017-Apr-18 17:30N 51°10' E 001°45'611.2
2017-Apr-18 17:00N 51°05' E 001°39'611.2
2017-Apr-18 16:30N 51°02' E 001°32'5 9.8
2017-Apr-18 16:00N 51°04' E 001°25'5 9.0
2017-Apr-18 15:30N 51°07' E 001°19'0 0.2
2017-Apr-18 14:54N 51°07' E 001°19'0 0.0
2017-Apr-18 14:21N 51°07' E 001°19'0 0.0
2017-Apr-18 12:59N 51°07' E 001°19'0 0.0
2017-Apr-18 12:26N 51°07' E 001°19'0 0.0
2017-Apr-18 11:59N 51°07' E 001°19'0 0.0
2017-Apr-18 11:24N 51°07' E 001°19'0 0.0
2017-Apr-18 10:55N 51°07' E 001°19'0 0.0
2017-Apr-18 10:23N 51°07' E 001°19'0 0.0
2017-Apr-18 09:59N 51°07' E 001°19'0 0.0
2017-Apr-18 09:29N 51°07' E 001°19'0 0.0
2017-Apr-18 08:56N 51°07' E 001°19'0 0.0
2017-Apr-18 08:29N 51°07' E 001°19'0 0.0
2017-Apr-18 07:47N 51°07' E 001°19'0 0.0
2017-Apr-18 07:23N 51°07' E 001°19'0 0.0
2017-Apr-18 07:00N 51°07' E 001°19'0 0.0
2017-Apr-18 06:24N 51°07' E 001°19'0 1.2
2017-Apr-18 06:00N 51°07' E 001°20'4 8.5
2017-Apr-18 05:30N 51°07' E 001°26'510.2
2017-Apr-18 05:01N 51°04' E 001°33'612.3
2017-Apr-18 04:31N 50°59' E 001°29'713.2
2017-Apr-18 03:59N 50°52' E 001°25'5911.1
2017-Apr-17 22:40N 50°10' E 000°19'211.3
2017-Apr-17 22:31N 50°09' E 000°17'611.1
2017-Apr-17 22:00N 50°05' E 000°11'510.6
2017-Apr-17 21:30N 50°01' E 000°07'5 9.8
2017-Apr-17 21:00N 49°57' E 000°02'4 9.0
2017-Apr-17 20:30N 49°53' W 000°02'4 8.8
2017-Apr-17 20:01N 49°50' W 000°06'4 8.7
2017-Apr-17 19:31N 49°46' W 000°09'5 9.3
2017-Apr-17 19:01N 49°41' W 000°07'5 9.6
2017-Apr-17 18:31N 49°37' W 000°04'5 9.4
2017-Apr-17 18:01N 49°33' W 000°01'5 9.8
2017-Apr-17 17:31N 49°29' E 000°04'1 2.9
2017-Apr-17 17:00N 49°29' E 000°07'0 0.0
2017-Apr-17 16:30N 49°29' E 000°07'0 0.0
2017-Apr-17 16:00N 49°29' E 000°07'0 0.0
2017-Apr-17 15:30N 49°29' E 000°07'0 0.0
2017-Apr-17 14:59N 49°29' E 000°07'0 0.0
2017-Apr-17 14:29N 49°29' E 000°07'0 0.0
2017-Apr-17 13:29N 49°29' E 000°07'0 0.0
2017-Apr-17 12:59N 49°29' E 000°07'0 0.0
2017-Apr-17 12:29N 49°29' E 000°07'0 0.0
2017-Apr-17 11:59N 49°29' E 000°07'0 0.0
2017-Apr-17 11:29N 49°29' E 000°07'0 0.0
2017-Apr-17 10:59N 49°29' E 000°07'0 0.0
2017-Apr-17 10:29N 49°29' E 000°07'0 0.0
2017-Apr-17 09:59N 49°29' E 000°07'0 0.0
2017-Apr-17 09:29N 49°29' E 000°07'0 0.0
2017-Apr-17 08:59N 49°29' E 000°07'0 0.0
2017-Apr-17 08:29N 49°29' E 000°07'0 0.0
2017-Apr-17 07:59N 49°29' E 000°07'0 0.0
2017-Apr-17 07:29N 49°29' E 000°07'0 0.0
2017-Apr-17 06:59N 49°29' E 000°07'0 0.0
2017-Apr-17 06:28N 49°29' E 000°07'0 0.6
2017-Apr-17 06:00N 49°29' E 000°06'4 8.5
2017-Apr-17 05:30N 49°30' W 000°00'5 9.1
2017-Apr-17 05:00N 49°31' W 000°07'4 7.5
2017-Apr-17 04:30N 49°33' W 000°12'510.0
2017-Apr-17 04:00N 49°35' W 000°19'4 8.5
2017-Apr-17 03:30N 49°37' W 000°24'4 8.0
2017-Apr-17 03:00N 49°39' W 000°30'4 8.3
2017-Apr-17 02:30N 49°42' W 000°35'4 8.7
2017-Apr-17 02:00N 49°45' W 000°39'4 9.0
2017-Apr-17 01:30N 49°49' W 000°43'5 9.3
2017-Apr-17 01:00N 49°53' W 000°46'5 9.6
2017-Apr-17 00:30N 49°57' W 000°50'5 9.8
2017-Apr-17 00:00N 49°58' W 000°58'611.4
2017-Apr-16 23:30N 49°57' W 001°06'63 3.5
2017-Apr-16 05:27N 49°24' W 002°30'39 8.8
2017-Apr-16 01:03N 49°46' W 003°19'111.0
2017-Apr-16 00:58N 49°47' W 003°19'4 9.2
2017-Apr-16 00:30N 49°51' W 003°18'610.8
2017-Apr-15 23:58N 49°54' W 003°09'510.2
2017-Apr-15 23:30N 49°56' W 003°03'5 9.9
2017-Apr-15 23:00N 49°59' W 002°56'5 9.3
2017-Apr-15 22:30N 49°60' W 002°50'  

Dump ship's entire track history